Ferdinand, Idaho
Current Conditions -  °F | °C
As of 5:35 AM on Sunday 23 Nov 2014 (Local Time) from KGIC Reporting Station
Broken Clouds Broken Clouds  
Wind Chill: -4°   Ceiling: 6000
Heat Index:   Visibility: 10mi
Dew Point: -3°   Wind: 16mph
Humidity: 69%   Direction: 230°SW
Pressure: 30.19"   Gusts: 24mph
Location:  46.15°N, 116.39°W
Report Text: KGIC 231335Z AUTO 23014G21KT 10SM BKN060 BKN080 02/M03 A3019 RMK AO1 T00171034
Loading
Personal Weather Stations






























Interactive Weather Map New forecast layout! Learn more

10-Day Weather Forecast

Advertisements
Track Severe Weather on mobile